• Join FlightAware (Why Join?)
  • Login
  • US Flag 
07:48AM EDT


 

Airport Tracker/Info


-or-


 

Live Flight TrackerFlight Track Log ✈ AFR1068 ✈ 16-Apr-2013 ✈ LFPG / CDG - EGCC / MAN

Flight Track Log - Related Links

Times and Time Zones

All times are in EDT time to prevent confusion due to time zone crossing. See the AFR1068 flight status page for this flight to view local times or setup timezone preferences in your user account.

Time Position Orientation Groundspeed Altitude Reporting Facility
EDT Latitude Longitude Course Direction KTS MPH feet Rate Location/Type
08:02AM 49.0810 2.4823 327° Northwest  Level Estimated
08:03AM 49.1492 2.4144 327° Northwest  Level Estimated
08:04AM 49.2174 2.3463 327° Northwest  Level Estimated
08:05AM 49.2855 2.2781 327° Northwest  Level Estimated
08:06AM 49.3536 2.2096 327° Northwest  Level Estimated
08:07AM 49.4217 2.1410 327° Northwest  Level Estimated
08:08AM 49.4897 2.0721 327° Northwest  Level Estimated
08:09AM 49.5577 2.0031 327° Northwest  Level Estimated
08:10AM 49.6256 1.9339 327° Northwest  Level Estimated
08:11AM 49.6935 1.8645 327° Northwest  Level Estimated
08:12AM 49.7613 1.7949 326° Northwest  Level Estimated
08:13AM 49.8291 1.7251 326° Northwest  Level Estimated
08:14AM 49.8969 1.6551 326° Northwest  Level Estimated
08:15AM 49.9646 1.5849 326° Northwest  Level Estimated
08:16AM 50.0323 1.5145 326° Northwest  Level Estimated
08:17AM 50.0999 1.4439 326° Northwest  Level Estimated
08:18AM 50.1675 1.3731 326° Northwest  Level Estimated
08:19AM 50.2350 1.3021 326° Northwest  Level Estimated
08:20AM 50.3025 1.2309 326° Northwest  Level Estimated
08:21AM 50.3700 1.1595 326° Northwest  Level Estimated
08:22AM 50.4374 1.0879 326° Northwest  Level Estimated
08:23AM 50.5048 1.0161 326° Northwest  Level Estimated
08:24AM 50.5682 0.9483 326° Northwest  Level Estimated
08:25AM 50.6316 0.8803 326° Northwest  Level Estimated
08:26AM 50.6949 0.8121 326° Northwest  Level Estimated
08:27AM 50.7582 0.7437 326° Northwest  Level Estimated
08:28AM 50.8215 0.6752 326° Northwest  Level Estimated
08:29AM 50.8847 0.6064 326° Northwest  Level Estimated
08:30AM 50.9479 0.5375 326° Northwest  Level Estimated
08:31AM 51.0111 0.4684 325° Northwest  Level Estimated
08:32AM 51.0742 0.3990 325° Northwest  Level Estimated
08:33AM 51.1372 0.3295 325° Northwest  Level Estimated
08:34AM 51.2002 0.2599 325° Northwest  Level Estimated
08:35AM 51.2632 0.1900 325° Northwest  Level Estimated
08:36AM 51.3262 0.1199 325° Northwest  Level Estimated
08:37AM 51.3856 0.0535 325° Northwest  Level Estimated
08:38AM 51.4450 -0.0131 325° Northwest  Level Estimated
08:39AM 51.5044 -0.0798 325° Northwest  Level Estimated
08:40AM 51.5637 -0.1468 325° Northwest  Level Estimated
08:41AM 51.6230 -0.2139 325° Northwest  Level Estimated
08:42AM 51.6823 -0.2812 325° Northwest  Level Estimated
08:43AM 51.7415 -0.3486 325° Northwest  Level Estimated
08:44AM 51.8007 -0.4162 325° Northwest  Level Estimated
08:45AM 51.8598 -0.4841 325° Northwest  Level Estimated
08:46AM 51.9189 -0.5520 325° Northwest  Level Estimated
08:47AM 51.9780 -0.6202 325° Northwest  Level Estimated
08:48AM 52.0370 -0.6886 325° Northwest  Level Estimated
08:49AM 52.0960 -0.7571 324° Northwest  Level Estimated
08:50AM 52.1550 -0.8258 324° Northwest  Level Estimated
08:51AM 52.2139 -0.8947 324° Northwest  Level Estimated
08:52AM 52.2728 -0.9638 324° Northwest  Level Estimated
08:53AM 52.3316 -1.0330 324° Northwest  Level Estimated
08:54AM 52.3904 -1.1025 324° Northwest  Level Estimated
08:55AM 52.4491 -1.1721 324° Northwest  Level Estimated
08:56AM 52.5078 -1.2419 324° Northwest  Level Estimated
08:57AM 52.5665 -1.3119 324° Northwest  Level Estimated
08:58AM 52.6251 -1.3821 324° Northwest  Level Estimated
08:59AM 52.6837 -1.4525 324° Northwest  Level Estimated
09:00AM 52.7422 -1.5231 324° Northwest  Level Estimated
09:01AM 52.8007 -1.5938 324° Northwest  Level Estimated
09:02AM 52.8592 -1.6648 324° Northwest  Level Estimated
09:03AM 52.9176 -1.7359 324° Northwest  Level Estimated
09:04AM 52.9760 -1.8073 324° Northwest  Level Estimated
09:05AM 53.0343 -1.8788 324° Northwest  Level Estimated
09:06AM 53.0926 -1.9505 324° Northwest  Level Estimated
09:07AM 53.1508 -2.0224 323° Northwest  Level Estimated
09:08AM 53.2090 -2.0945 323° Northwest  Level Estimated
09:09AM 53.2672 -2.1668 323° Northwest  Level Estimated
09:10AM 53.3253 -2.2393 323° Northwest  Level Estimated
09:11AM 53.3537 -2.2750 323° Northwest  Level Estimated
09:12AM 53.3537 -2.2750 North  Level Estimated
09:13AM 53.3537 -2.2750 North  Level Estimated
09:14AM 53.3537 -2.2750 North  Level Estimated